Hicks, Louisiana
Current Conditions -  °F | °C
As of 3:58 AM on Thursday 27 Nov 2014 (Local Time) from KPOE Reporting Station
Clear Clear  
Wind Chill: 45°   Ceiling: Unl
Heat Index: 45°   Visibility: 10mi
Dew Point: 36°   Wind: 3mph
Humidity: 70%   Direction: 300°WNW
Pressure: 30.38"   Gusts: NA
Location:  31.2063°N, 93.1344°W
Report Text: KPOE 270958Z AUTO 30003KT 10SM CLR 07/02 A3038 RMK AO2 SLP289 T00740022
Loading
Personal Weather Stations






























Interactive Weather Map New forecast layout! Learn more

10-Day Weather Forecast

Advertisements
Track Severe Weather on mobile